Time;durP1;ratioP1;P1;durP2;ratioP2;P2;SDS_P1;SDS_P2;PMS_P1;PMS_P2;Temp;Humidity;BMP_temperature;BMP_pressure;BME280_temperature;BME280_humidity;BME280_pressure;Samples;Min_cycle;Max_cycle;Signal;HPM_P1;HPM_P2
2021/10/07 00:01:50;;;;;;;;;2.67;2.67;;;;;19.32;48.70;102313.94;5057585;28;45255;-49
2021/10/07 00:04:15;;;;;;;;;3.33;2.67;;;;;19.32;48.94;102319.28;5057662;28;45302;-49
2021/10/07 00:06:41;;;;;;;;;2.67;2.67;;;;;19.33;48.95;102312.19;5057743;28;45252;-55
2021/10/07 00:09:06;;;;;;;;;2.00;2.00;;;;;19.32;48.77;102313.06;5058037;28;46965;-56
2021/10/07 00:11:33;;;;;;;;;4.33;2.67;;;;;19.32;48.62;102318.38;5061173;28;45318;-45
2021/10/07 00:13:59;;;;;;;;;3.33;3.33;;;;;19.32;48.96;102313.94;5061144;28;45324;-46
2021/10/07 00:16:24;;;;;;;;;2.00;1.67;;;;;19.32;49.00;102321.94;5060979;28;45406;-46
2021/10/07 00:18:52;;;;;;;;;4.00;2.67;;;;;19.33;48.63;102326.38;5060820;28;46088;-54
2021/10/07 00:21:18;;;;;;;;;2.00;2.00;;;;;19.32;48.70;102323.72;5061145;28;45317;-48
2021/10/07 00:24:06;;;;;;;;;2.00;2.00;;;;;19.32;48.84;102327.28;5060934;28;45272;-47
2021/10/07 00:26:36;;;;;;;;;4.67;2.00;;;;;19.31;48.92;102322.81;5061144;28;45339;-47
2021/10/07 00:29:20;;;;;;;;;2.67;2.00;;;;;19.33;48.56;102321.06;5060808;28;47119;-46
2021/10/07 00:31:49;;;;;;;;;1.67;1.67;;;;;19.32;48.79;102324.63;5060309;28;45251;-45
2021/10/07 00:34:21;;;;;;;;;3.00;3.00;;;;;19.31;48.63;102325.47;5060943;28;45236;-61
2021/10/07 00:39:31;;;;;;;;;4.00;3.33;;;;;19.32;48.70;102329.06;5060592;28;45251;-46
2021/10/07 00:41:57;;;;;;;;;2.33;2.33;;;;;19.32;48.80;102329.06;5060553;28;45152;-45
2021/10/07 00:44:23;;;;;;;;;2.67;2.67;;;;;19.33;48.68;102328.19;5060483;28;45340;-51
2021/10/07 00:46:58;;;;;;;;;2.67;1.67;;;;;19.32;48.68;102329.94;5060629;28;45268;-48
2021/10/07 00:49:23;;;;;;;;;3.00;1.67;;;;;19.32;48.54;102337.94;5060416;28;46253;-50
2021/10/07 00:51:49;;;;;;;;;3.33;2.33;;;;;19.32;48.61;102329.94;5060343;28;45362;-46
2021/10/07 00:54:17;;;;;;;;;4.33;2.00;;;;;19.32;48.48;102337.94;5060640;28;45599;-46
2021/10/07 00:56:43;;;;;;;;;3.00;1.67;;;;;19.32;48.60;102340.63;5060704;28;45324;-46
2021/10/07 00:59:08;;;;;;;;;3.33;2.33;;;;;19.32;48.51;102331.72;5060164;28;46186;-47
2021/10/07 01:01:34;;;;;;;;;2.00;2.00;;;;;19.31;48.62;102328.16;5060283;28;45524;-50
2021/10/07 01:03:59;;;;;;;;;2.33;2.33;;;;;19.30;48.69;102329.06;5060546;28;45382;-45
2021/10/07 01:06:25;;;;;;;;;4.67;2.67;;;;;19.32;48.61;102331.72;5060586;28;45571;-45
2021/10/07 01:08:51;;;;;;;;;2.00;2.00;;;;;19.32;48.63;102323.72;5059816;28;46149;-47
2021/10/07 01:11:16;;;;;;;;;3.67;2.00;;;;;19.31;48.46;102328.16;5060300;28;45213;-46
2021/10/07 01:13:42;;;;;;;;;2.33;2.33;;;;;19.31;48.58;102322.81;5060139;28;45270;-47
2021/10/07 01:16:10;;;;;;;;;4.00;3.33;;;;;19.31;48.67;102328.16;5060447;28;45219;-46
2021/10/07 01:18:35;;;;;;;;;2.67;2.67;;;;;19.31;48.48;102327.28;5060177;28;47236;-47
2021/10/07 01:21:02;;;;;;;;;4.00;3.00;;;;;19.30;48.64;102326.38;5058572;28;45447;-48
2021/10/07 01:23:27;;;;;;;;;2.33;2.33;;;;;19.30;48.38;102321.06;5059993;28;45344;-45
2021/10/07 01:25:52;;;;;;;;;2.33;2.33;;;;;19.29;48.50;102324.59;5060140;28;45474;-45
2021/10/07 01:28:18;;;;;;;;;2.00;1.00;;;;;19.31;48.48;102329.94;5059777;28;46405;-49
2021/10/07 01:30:44;;;;;;;;;2.00;2.00;;;;;19.31;48.47;102328.16;5059618;28;45407;-45
2021/10/07 01:33:10;;;;;;;;;2.67;2.67;;;;;19.30;48.44;102329.06;5059985;28;45331;-46
2021/10/07 01:35:36;;;;;;;;;2.33;2.33;;;;;19.30;48.38;102331.72;5060054;28;45322;-45
2021/10/07 01:38:03;;;;;;;;;2.00;2.00;;;;;19.30;48.34;102331.72;5059480;28;46269;-58
2021/10/07 01:40:29;;;;;;;;;5.33;2.00;;;;;19.29;48.52;102324.59;5059561;28;45251;-49
2021/10/07 01:42:54;;;;;;;;;2.00;2.00;;;;;19.31;48.58;102327.28;5059930;28;45215;-48
2021/10/07 01:45:21;;;;;;;;;4.00;2.67;;;;;19.31;48.43;102324.63;5060066;28;45199;-47
2021/10/07 01:47:46;;;;;;;;;1.00;1.00;;;;;19.31;48.35;102329.94;5059583;28;46188;-47
2021/10/07 01:50:13;;;;;;;;;1.67;1.67;;;;;19.29;48.22;102327.25;5059551;28;45432;-45
2021/10/07 01:52:39;;;;;;;;;4.33;3.00;;;;;19.30;48.58;102325.47;5059826;28;45311;-50
2021/10/07 01:55:07;;;;;;;;;1.67;1.67;;;;;19.29;48.32;102321.91;5060104;28;45344;-49
2021/10/07 01:57:33;;;;;;;;;2.00;1.67;;;;;19.31;48.26;102330.81;5059251;28;46347;-49
2021/10/07 01:59:58;;;;;;;;;3.67;1.00;;;;;19.30;48.53;102326.38;5059541;28;45239;-53
2021/10/07 02:02:23;;;;;;;;;2.67;2.67;;;;;19.30;48.50;102330.81;5059633;28;45345;-45
2021/10/07 02:04:49;;;;;;;;;1.33;1.00;;;;;19.30;48.34;102323.72;5059724;28;45287;-49
2021/10/07 02:07:14;;;;;;;;;2.00;2.00;;;;;19.30;48.56;102322.81;5059326;28;47190;-49
2021/10/07 02:09:39;;;;;;;;;4.00;1.67;;;;;19.30;48.23;102326.38;5059342;28;45250;-49
2021/10/07 02:12:05;;;;;;;;;4.00;3.00;;;;;19.30;48.32;102326.38;5059494;28;45221;-46
2021/10/07 02:14:31;;;;;;;;;2.00;2.00;;;;;19.29;48.42;102316.59;5059485;28;45480;-46
2021/10/07 02:16:56;;;;;;;;;2.00;2.00;;;;;19.30;48.31;102315.72;5059020;28;46373;-46
2021/10/07 02:19:22;;;;;;;;;2.00;1.67;;;;;19.28;48.53;102319.25;5059197;28;45305;-45
2021/10/07 02:21:47;;;;;;;;;2.67;1.67;;;;;19.30;48.31;102312.16;5059398;28;45303;-48
2021/10/07 02:24:13;;;;;;;;;1.33;1.33;;;;;19.30;48.36;102315.72;5059131;28;45378;-51
2021/10/07 02:26:39;;;;;;;;;4.00;2.00;;;;;19.29;48.50;102307.72;5059084;28;45499;-46
2021/10/07 02:29:05;;;;;;;;;3.33;1.67;;;;;19.28;48.44;102305.91;5058946;28;45290;-47
2021/10/07 02:31:31;;;;;;;;;4.67;2.33;;;;;19.29;48.24;102305.91;5058983;28;45278;-46
2021/10/07 02:33:56;;;;;;;;;2.33;2.33;;;;;19.29;48.32;102308.59;5058633;28;45370;-46
2021/10/07 02:36:23;;;;;;;;;3.67;1.00;;;;;19.29;48.20;102308.59;5058972;28;47064;-47
2021/10/07 02:38:49;;;;;;;;;2.33;1.00;;;;;19.29;48.20;102307.72;5058962;28;45216;-45
2021/10/07 02:41:15;;;;;;;;;3.00;1.67;;;;;19.28;48.32;102309.47;5058829;28;45457;-61
2021/10/07 02:43:40;;;;;;;;;3.33;1.67;;;;;19.28;48.40;102301.50;5058770;28;45543;-45
2021/10/07 02:46:06;;;;;;;;;1.67;1.67;;;;;19.28;48.27;102308.59;5058741;28;47383;-46
2021/10/07 02:48:31;;;;;;;;;2.67;2.33;;;;;19.28;48.18;102314.81;5058807;28;45300;-45
2021/10/07 02:50:57;;;;;;;;;3.33;1.33;;;;;19.28;48.42;102306.81;5058805;28;45507;-50
2021/10/07 02:53:23;;;;;;;;;2.67;2.67;;;;;19.28;48.37;102308.59;5058946;28;45314;-47
2021/10/07 02:55:48;;;;;;;;;3.33;1.67;;;;;19.29;48.37;102313.06;5058332;28;47031;-46
2021/10/07 02:58:14;;;;;;;;;1.00;1.00;;;;;19.28;48.55;102317.47;5058677;28;45302;-46
2021/10/07 03:00:39;;;;;;;;;2.67;2.00;;;;;19.28;48.36;102316.59;5058739;28;45328;-49
2021/10/07 03:03:04;;;;;;;;;1.33;1.33;;;;;19.28;48.37;102309.47;5058685;28;45272;-49
2021/10/07 03:05:30;;;;;;;;;2.00;2.00;;;;;19.27;48.13;102310.34;5058450;28;46349;-48
2021/10/07 03:07:55;;;;;;;;;2.33;1.67;;;;;19.28;48.49;102306.81;5058594;28;45304;-55
2021/10/07 03:10:21;;;;;;;;;5.00;1.67;;;;;19.27;48.51;102313.00;5058624;28;45204;-59
2021/10/07 03:12:47;;;;;;;;;1.33;1.33;;;;;19.27;48.25;102310.34;5058618;28;45228;-45
2021/10/07 03:15:12;;;;;;;;;2.33;1.00;;;;;19.27;48.17;102315.69;5058357;28;47140;-45
2021/10/07 03:17:38;;;;;;;;;2.00;1.67;;;;;19.26;48.43;102321.91;5058202;28;45208;-45
2021/10/07 03:20:07;;;;;;;;;0.67;0.67;;;;;19.27;48.41;102329.00;5058320;28;45231;-45
2021/10/07 03:22:33;;;;;;;;;1.00;1.00;;;;;19.27;48.30;102320.16;5058479;28;45482;-47
2021/10/07 03:24:58;;;;;;;;;2.00;2.00;;;;;19.28;48.52;102321.91;5058030;28;46058;-49
2021/10/07 03:27:24;;;;;;;;;2.00;2.00;;;;;19.27;48.30;102326.34;5057886;28;45517;-46
2021/10/07 03:29:49;;;;;;;;;2.00;1.67;;;;;19.27;48.54;102326.34;5058383;28;45410;-48
2021/10/07 03:32:14;;;;;;;;;2.33;1.67;;;;;19.26;48.33;102326.34;5057941;28;45427;-46
2021/10/07 03:34:40;;;;;;;;;1.67;1.00;;;;;19.26;48.12;102319.25;5057868;28;46897;-52
2021/10/07 03:37:05;;;;;;;;;1.67;1.67;;;;;19.26;48.50;102329.00;5057960;28;45307;-46
2021/10/07 03:39:31;;;;;;;;;4.67;2.00;;;;;19.25;48.20;102330.78;5058223;28;45274;-47
2021/10/07 03:41:56;;;;;;;;;4.00;2.67;;;;;19.26;47.94;102329.91;5058068;28;45428;-46
2021/10/07 03:44:22;;;;;;;;;1.67;1.67;;;;;19.26;48.14;102334.34;5056825;28;47061;-50
2021/10/07 03:46:47;;;;;;;;;2.33;2.33;;;;;19.26;49.09;102327.25;5057856;28;45263;-47
2021/10/07 03:49:12;;;;;;;;;2.33;1.00;;;;;19.26;50.00;102329.00;5058117;28;45432;-48
2021/10/07 03:51:38;;;;;;;;;1.00;0.67;;;;;19.27;50.53;102331.69;5058053;28;45217;-53
2021/10/07 03:54:03;;;;;;;;;0.67;0.67;;;;;19.27;50.81;102331.69;5057845;28;45259;-49
2021/10/07 03:56:29;;;;;;;;;1.33;1.33;;;;;19.27;50.77;102342.34;5057589;28;45231;-47
2021/10/07 03:58:54;;;;;;;;;2.00;1.67;;;;;19.28;50.86;102337.91;5057766;28;45322;-51
2021/10/07 04:01:19;;;;;;;;;2.00;1.00;;;;;19.27;50.83;102337.00;5057905;28;45322;-48
2021/10/07 04:03:45;;;;;;;;;0.33;0.33;;;;;19.29;50.92;102340.59;5057581;28;45285;-47
2021/10/07 04:06:11;;;;;;;;;2.00;1.33;;;;;19.28;51.12;102343.25;5057715;28;45330;-48
2021/10/07 04:08:36;;;;;;;;;3.33;1.67;;;;;19.28;51.20;102341.47;5057707;28;45328;-47
2021/10/07 04:11:02;;;;;;;;;1.00;1.00;;;;;19.29;51.28;102345.91;5057742;28;45285;-48
2021/10/07 04:13:27;;;;;;;;;3.00;1.67;;;;;19.29;51.10;102351.25;5057294;28;45298;-50
2021/10/07 04:15:53;;;;;;;;;1.67;1.67;;;;;19.29;51.35;102348.56;5057579;28;45263;-52
2021/10/07 04:18:19;;;;;;;;;2.00;1.00;;;;;19.30;51.33;102352.16;5057530;28;45255;-53
2021/10/07 04:20:46;;;;;;;;;2.67;1.33;;;;;19.30;51.10;102353.03;5057570;28;45298;-46
2021/10/07 04:23:12;;;;;;;;;1.67;1.00;;;;;19.30;51.25;102353.03;5057351;28;46425;-56
2021/10/07 04:25:37;;;;;;;;;1.00;1.00;;;;;19.31;51.33;102353.94;5057091;28;45661;-53
2021/10/07 04:28:06;;;;;;;;;1.33;0.67;;;;;19.31;51.29;102356.59;5057511;28;45264;-53
2021/10/07 04:30:34;;;;;;;;;1.00;1.00;;;;;19.31;51.47;102351.28;5057316;28;45260;-48
2021/10/07 04:33:00;;;;;;;;;1.00;1.00;;;;;19.31;51.38;102353.94;5056762;28;47150;-46
2021/10/07 04:35:25;;;;;;;;;1.00;0.67;;;;;19.30;51.39;102347.72;5057087;28;45363;-50
2021/10/07 04:37:51;;;;;;;;;2.00;1.00;;;;;19.30;51.37;102347.72;5057432;28;45520;-48
2021/10/07 04:40:16;;;;;;;;;0.67;0.67;;;;;19.31;51.43;102348.63;5057543;28;45460;-50
2021/10/07 04:42:41;;;;;;;;;0.67;0.67;;;;;19.31;51.39;102345.94;5057151;28;45991;-53
2021/10/07 04:45:07;;;;;;;;;1.67;0.67;;;;;19.32;51.47;102347.72;5056624;28;45215;-47
2021/10/07 04:47:32;;;;;;;;;2.00;1.00;;;;;19.32;51.39;102350.38;5057070;28;45224;-57
2021/10/07 04:49:58;;;;;;;;;1.00;1.00;;;;;19.32;51.25;102350.38;5057276;28;45212;-46
2021/10/07 04:52:23;;;;;;;;;1.00;1.00;;;;;19.32;51.55;102347.72;5057187;28;46056;-47
2021/10/07 04:54:48;;;;;;;;;1.67;1.67;;;;;19.32;51.38;102351.28;5057172;28;45464;-47
2021/10/07 04:57:14;;;;;;;;;1.67;1.67;;;;;19.32;51.23;102345.03;5060646;28;45332;-49
2021/10/07 04:59:39;;;;;;;;;3.00;2.00;;;;;19.32;51.21;102347.72;5060727;28;45146;-49
2021/10/07 05:02:05;;;;;;;;;1.67;1.67;;;;;19.31;51.51;102341.47;5060435;28;46114;-50
2021/10/07 05:04:31;;;;;;;;;3.33;1.67;;;;;19.32;51.40;102351.28;5060011;28;45347;-48
2021/10/07 05:06:56;;;;;;;;;1.67;1.67;;;;;19.31;51.48;102349.47;5060499;28;45282;-52
2021/10/07 05:09:22;;;;;;;;;1.00;1.00;;;;;19.32;51.30;102351.28;5060587;28;45329;-50
2021/10/07 05:11:47;;;;;;;;;2.00;1.00;;;;;19.32;51.20;102356.63;5060206;28;45970;-47
2021/10/07 05:14:12;;;;;;;;;1.00;1.00;;;;;19.33;51.45;102369.03;5060384;28;45354;-46
2021/10/07 05:16:38;;;;;;;;;3.00;1.33;;;;;19.32;51.53;102367.28;5060347;28;45364;-48
2021/10/07 05:19:03;;;;;;;;;1.00;1.00;;;;;19.32;51.20;102367.28;5060556;28;45294;-50
2021/10/07 05:21:28;;;;;;;;;1.67;1.67;;;;;19.33;51.21;102371.72;5060254;28;47348;-53
2021/10/07 05:23:54;;;;;;;;;2.33;1.00;;;;;19.33;51.24;102365.50;5060064;28;45493;-51
2021/10/07 05:26:19;;;;;;;;;2.00;1.00;;;;;19.33;51.21;102373.50;5060139;28;45357;-54
2021/10/07 05:28:45;;;;;;;;;1.33;1.33;;;;;19.32;51.42;102372.59;5060338;28;45417;-52
2021/10/07 05:31:11;;;;;;;;;2.33;2.00;;;;;19.33;51.12;102373.50;5059788;28;46302;-47
2021/10/07 05:33:36;;;;;;;;;4.33;1.67;;;;;19.32;51.21;102377.94;5059601;28;45323;-54
2021/10/07 05:36:02;;;;;;;;;1.00;1.00;;;;;19.34;51.44;102385.94;5059884;28;45240;-56
2021/10/07 05:38:29;;;;;;;;;2.00;1.00;;;;;19.31;51.33;102376.13;5060315;28;45177;-46
2021/10/07 05:40:54;;;;;;;;;0.67;0.67;;;;;19.33;51.42;102385.03;5059743;28;46240;-59
2021/10/07 05:43:20;;;;;;;;;2.00;2.00;;;;;19.33;51.40;102378.84;5059496;28;45262;-50
2021/10/07 05:45:45;;;;;;;;;2.00;1.33;;;;;19.33;51.26;102378.84;5059865;28;45274;-50
2021/10/07 05:48:10;;;;;;;;;4.00;2.67;;;;;19.32;51.33;102383.28;5059918;28;45401;-50
2021/10/07 05:50:36;;;;;;;;;2.00;1.33;;;;;19.32;51.45;102377.94;5059435;28;45334;-48
2021/10/07 05:53:01;;;;;;;;;1.67;1.67;;;;;19.33;51.38;102384.19;5059501;28;45437;-49
2021/10/07 05:55:27;;;;;;;;;1.67;1.33;;;;;19.34;51.53;102388.63;5059767;28;45625;-45
2021/10/07 05:57:52;;;;;;;;;1.00;1.00;;;;;19.34;51.68;102391.28;5059949;28;45553;-46
2021/10/07 06:00:18;;;;;;;;;1.67;1.67;;;;;19.35;52.30;102392.19;5059388;28;46295;-50
2021/10/07 06:02:43;;;;;;;;;1.67;1.67;;;;;19.36;53.10;102391.28;5059332;28;45424;-54
2021/10/07 06:05:10;;;;;;;;;3.00;2.00;;;;;19.38;53.30;102398.41;5059318;28;45302;-55
2021/10/07 06:07:36;;;;;;;;;2.33;0.67;;;;;19.40;53.42;102403.75;5058691;28;45306;-49
2021/10/07 06:10:01;;;;;;;;;0.67;0.67;;;;;19.40;53.12;102396.66;5059103;28;46269;-51
2021/10/07 06:12:26;;;;;;;;;3.00;2.00;;;;;19.41;53.44;102398.44;5059333;28;45154;-47
2021/10/07 06:14:52;;;;;;;;;2.33;1.00;;;;;19.40;53.32;102404.66;5059573;28;45320;-48
2021/10/07 06:17:17;;;;;;;;;2.00;2.00;;;;;19.41;53.59;102408.22;5059557;28;45148;-53
2021/10/07 06:19:46;;;;;;;;;1.33;1.33;;;;;19.39;53.32;102405.56;5058939;28;46965;-56
2021/10/07 06:22:12;;;;;;;;;2.33;1.33;;;;;19.41;53.13;102413.56;5059249;28;45296;-49
2021/10/07 06:24:37;;;;;;;;;2.67;2.67;;;;;19.40;53.36;102411.75;5059210;28;45406;-46
2021/10/07 06:27:03;;;;;;;;;2.33;2.33;;;;;19.40;53.44;102409.09;5059047;28;45276;-50
2021/10/07 06:29:29;;;;;;;;;3.00;1.33;;;;;19.40;53.17;102412.66;5058952;28;47432;-54
2021/10/07 06:31:54;;;;;;;;;2.00;2.00;;;;;19.38;52.88;102406.41;5058518;28;45323;-59
2021/10/07 06:34:20;;;;;;;;;2.33;2.33;;;;;19.39;52.84;102401.97;5059008;28;45355;-47
2021/10/07 06:36:45;;;;;;;;;3.33;2.00;;;;;19.37;52.92;102403.75;5059474;28;45375;-55
2021/10/07 06:39:11;;;;;;;;;2.00;2.00;;;;;19.37;52.63;102409.97;5058962;28;47019;-50
2021/10/07 06:41:37;;;;;;;;;3.00;2.00;;;;;19.37;52.61;102407.31;5058725;28;45347;-56
2021/10/07 06:44:03;;;;;;;;;1.67;1.67;;;;;19.36;52.32;102400.19;5058325;28;45395;-46
2021/10/07 06:46:29;;;;;;;;;5.00;2.67;;;;;19.36;52.57;102402.84;5059134;28;45228;-46
2021/10/07 06:48:55;;;;;;;;;3.67;2.00;;;;;19.35;52.35;102403.75;5058574;28;46417;-49
2021/10/07 06:51:23;;;;;;;;;3.67;2.00;;;;;19.34;51.98;102404.59;5058617;28;45319;-56
2021/10/07 06:53:52;;;;;;;;;3.00;3.00;;;;;19.34;51.88;102412.59;5058734;28;45306;-48
2021/10/07 06:56:19;;;;;;;;;3.00;3.00;;;;;19.33;51.86;102414.38;5058743;28;45259;-53
2021/10/07 06:58:44;;;;;;;;;3.33;3.33;;;;;19.33;51.85;102421.50;5058358;28;46242;-64
2021/10/07 07:01:09;;;;;;;;;5.33;3.00;;;;;19.32;51.64;102420.59;5058289;28;45185;-52
2021/10/07 07:03:35;;;;;;;;;2.00;1.00;;;;;19.32;51.57;102425.94;5058598;28;45140;-49
2021/10/07 07:06:00;;;;;;;;;4.00;4.00;;;;;19.31;51.57;102424.13;5058916;28;45190;-50
2021/10/07 07:08:25;;;;;;;;;4.33;4.33;;;;;19.32;51.66;102425.03;5058397;28;45983;-60
2021/10/07 07:10:51;;;;;;;;;2.67;2.67;;;;;19.31;51.49;102428.59;5058695;28;45294;-53
2021/10/07 07:13:16;;;;;;;;;4.00;4.00;;;;;19.30;51.51;102435.69;5058500;28;45260;-56
2021/10/07 07:15:42;;;;;;;;;4.67;3.67;;;;;19.30;51.18;102438.38;5058657;28;45359;-51
2021/10/07 07:18:07;;;;;;;;;3.67;3.67;;;;;19.30;51.42;102435.69;5058092;28;46998;-48
2021/10/07 07:20:33;;;;;;;;;2.00;2.00;;;;;19.30;51.18;102438.38;5057872;28;45350;-46
2021/10/07 07:22:58;;;;;;;;;6.33;3.00;;;;;19.30;51.06;102443.69;5058328;28;45421;-49
2021/10/07 07:25:23;;;;;;;;;5.00;2.67;;;;;19.29;50.89;102449.03;5058252;28;45271;-59
2021/10/07 07:27:49;;;;;;;;;4.00;3.00;;;;;19.29;51.08;102446.34;5057901;28;45362;-63
2021/10/07 07:30:14;;;;;;;;;7.33;4.67;;;;;19.28;50.80;102440.13;5058077;28;45402;-59
2021/10/07 07:32:40;;;;;;;;;4.67;3.33;;;;;19.28;50.93;102450.78;5057758;28;45356;-47
2021/10/07 07:35:06;;;;;;;;;3.33;3.33;;;;;19.28;50.84;102445.47;5058225;28;45393;-60
2021/10/07 07:37:31;;;;;;;;;3.67;3.33;;;;;19.27;50.85;102443.66;5057469;28;45970;-48
2021/10/07 07:39:57;;;;;;;;;5.00;4.00;;;;;19.28;50.89;102449.88;5057719;28;45223;-59
2021/10/07 07:42:22;;;;;;;;;8.33;4.00;;;;;19.27;50.64;102446.31;5057864;28;45311;-50
2021/10/07 07:44:48;;;;;;;;;5.00;5.00;;;;;19.26;50.75;102449.88;5057702;28;45369;-59
2021/10/07 07:47:14;;;;;;;;;6.00;2.67;;;;;19.26;50.56;102443.66;5057681;28;47127;-59
2021/10/07 07:49:39;;;;;;;;;4.33;4.33;;;;;19.26;50.81;102444.56;5057603;28;45296;-46
2021/10/07 07:52:06;;;;;;;;;8.67;5.00;;;;;19.24;50.37;102448.97;5057696;28;45370;-48
2021/10/07 07:54:32;;;;;;;;;5.00;3.33;;;;;19.25;50.48;102448.09;5057778;28;45463;-49
2021/10/07 07:56:57;;;;;;;;;6.33;4.33;;;;;19.25;50.35;102455.22;5057126;28;46222;-55
2021/10/07 07:59:23;;;;;;;;;7.33;4.33;;;;;19.24;50.52;102456.06;5057522;28;45343;-55
2021/10/07 08:01:48;;;;;;;;;3.67;3.67;;;;;19.23;50.47;102460.50;5057683;28;45290;-52
2021/10/07 08:04:14;;;;;;;;;5.00;4.00;;;;;19.23;50.41;102452.50;5057597;28;45401;-53
2021/10/07 08:06:39;;;;;;;;;4.33;3.67;;;;;19.23;50.19;102451.63;5057203;28;46151;-51
2021/10/07 08:09:05;;;;;;;;;10.33;5.67;;;;;19.23;50.35;102460.50;5057216;28;45256;-61
2021/10/07 08:11:33;;;;;;;;;8.00;5.33;;;;;19.21;50.35;102455.16;5057246;28;45445;-51
2021/10/07 08:14:00;;;;;;;;;5.00;4.67;;;;;19.21;50.34;102465.84;5057616;28;45513;-49
2021/10/07 08:16:28;;;;;;;;;7.00;6.00;;;;;19.22;50.14;102464.06;5057426;28;45345;-47
2021/10/07 08:18:54;;;;;;;;;6.67;4.67;;;;;19.22;50.13;102472.06;5057409;28;45351;-57
2021/10/07 08:21:19;;;;;;;;;5.67;5.67;;;;;19.23;50.19;102467.63;5057164;28;45305;-50
2021/10/07 08:23:47;;;;;;;;;5.00;3.67;;;;;19.22;50.10;102466.72;5057398;28;45298;-56
2021/10/07 08:26:12;;;;;;;;;6.00;4.00;;;;;19.21;49.92;102472.94;5057307;28;46964;-51
2021/10/07 08:28:38;;;;;;;;;6.33;5.33;;;;;19.21;50.07;102465.84;5057251;28;45256;-55
2021/10/07 08:31:04;;;;;;;;;10.67;5.00;;;;;19.21;50.30;102472.94;5059104;28;45237;-57
2021/10/07 08:33:29;;;;;;;;;8.67;4.67;;;;;19.21;50.10;102475.59;5060733;28;45502;-50
2021/10/07 08:35:55;;;;;;;;;4.00;3.00;;;;;19.21;50.18;102472.94;5060298;28;47080;-56
2021/10/07 08:38:20;;;;;;;;;6.33;5.00;;;;;19.21;50.14;102476.50;5060603;28;45332;-59
2021/10/07 08:40:46;;;;;;;;;12.00;5.33;;;;;19.22;50.31;102472.06;5060657;28;45493;-60
2021/10/07 08:43:11;;;;;;;;;6.00;6.00;;;;;19.21;49.91;102471.16;5060749;28;45382;-54
2021/10/07 08:45:37;;;;;;;;;6.00;4.67;;;;;19.19;50.05;102478.25;5060253;28;46448;-56
2021/10/07 08:48:02;;;;;;;;;7.33;5.00;;;;;19.20;50.09;102476.50;5060571;28;45344;-58
2021/10/07 08:50:28;;;;;;;;;8.00;4.67;;;;;19.20;50.15;102479.16;5060493;28;45379;-52
2021/10/07 08:52:53;;;;;;;;;10.00;6.00;;;;;19.19;49.93;102478.25;5060483;28;45568;-46
2021/10/07 08:55:19;;;;;;;;;12.33;6.00;;;;;19.20;49.90;102471.16;5059907;28;46050;-53
2021/10/07 08:57:45;;;;;;;;;7.00;6.33;;;;;19.20;49.99;102468.50;5059974;28;45507;-58
2021/10/07 09:00:13;;;;;;;;;8.67;6.00;;;;;19.20;50.04;102471.16;5060228;28;45303;-53
2021/10/07 09:02:39;;;;;;;;;11.33;6.67;;;;;19.20;49.92;102471.16;5060550;28;45330;-55
2021/10/07 09:05:19;;;;;;;;;6.67;6.67;;;;;19.19;49.82;102472.03;5059922;28;46935;-51
2021/10/07 09:08:02;;;;;;;;;11.33;7.33;;;;;19.19;49.97;102467.59;5059820;28;45330;-56
2021/10/07 09:10:36;;;;;;;;;6.67;5.67;;;;;19.20;50.14;102479.16;5060286;28;45382;-59
2021/10/07 09:13:03;;;;;;;;;7.67;7.00;;;;;19.20;49.98;102473.81;5060196;28;45319;-56
2021/10/07 09:15:29;;;;;;;;;10.00;7.00;;;;;19.19;49.96;102472.03;5059724;28;46210;-56
2021/10/07 09:17:55;;;;;;;;;7.33;6.00;;;;;19.18;49.86;102472.91;5059829;28;45298;-61
2021/10/07 09:20:37;;;;;;;;;13.00;6.33;;;;;19.19;50.17;102477.34;5060153;28;45328;-48
2021/10/07 09:23:28;;;;;;;;;6.67;5.67;;;;;19.20;50.06;102479.16;5060283;28;45385;-53
2021/10/07 09:26:09;;;;;;;;;8.00;6.67;;;;;19.20;50.16;102476.50;5059679;28;47371;-53
2021/10/07 09:28:56;;;;;;;;;6.67;5.67;;;;;19.19;50.21;102469.34;5059631;28;45556;-52
2021/10/07 09:31:26;;;;;;;;;7.00;7.00;;;;;19.19;50.14;102469.34;5059844;28;45293;-51
2021/10/07 09:33:54;;;;;;;;;7.67;6.33;;;;;19.18;49.94;102456.94;5059523;28;45478;-55
2021/10/07 09:36:20;;;;;;;;;10.00;6.00;;;;;19.18;50.24;102465.81;5059685;28;47179;-54
2021/10/07 09:38:48;;;;;;;;;11.33;6.00;;;;;19.18;50.26;102459.59;5059643;28;45258;-51
2021/10/07 09:41:17;;;;;;;;;10.33;7.00;;;;;19.17;50.20;102463.13;5059288;28;45227;-52
2021/10/07 09:43:53;;;;;;;;;8.00;6.67;;;;;19.17;50.12;102457.78;5059015;28;45423;-55
2021/10/07 09:46:39;;;;;;;;;8.67;8.00;;;;;19.17;49.94;102455.13;5059380;28;46440;-50
2021/10/07 09:49:04;;;;;;;;;10.33;8.00;;;;;19.16;50.25;102461.34;5059439;28;45304;-53
2021/10/07 09:51:42;;;;;;;;;5.00;5.00;;;;;19.16;49.96;102464.88;5059601;28;45352;-49
2021/10/07 09:54:08;;;;;;;;;6.00;6.00;;;;;19.16;50.11;102464.00;5059607;28;45271;-57
2021/10/07 09:56:34;;;;;;;;;7.67;7.67;;;;;19.15;50.18;102465.78;5059179;28;46924;-53
2021/10/07 09:59:08;;;;;;;;;5.67;5.67;;;;;19.16;50.25;102464.00;5059542;28;45379;-59
2021/10/07 10:01:36;;;;;;;;;7.33;6.00;;;;;19.16;50.11;102458.69;5059508;28;45196;-54
2021/10/07 10:04:01;;;;;;;;;8.00;6.00;;;;;19.15;50.21;102451.56;5059617;28;45428;-53
2021/10/07 10:06:27;;;;;;;;;7.67;7.67;;;;;19.15;50.13;102454.22;5058960;28;46047;-57
2021/10/07 10:08:52;;;;;;;;;10.33;7.33;;;;;19.14;50.53;102447.94;5059310;28;45329;-53
2021/10/07 10:11:20;;;;;;;;;9.67;8.00;;;;;19.15;50.41;102447.13;5059403;28;45334;-54
2021/10/07 10:13:48;;;;;;;;;8.33;6.67;;;;;19.14;50.48;102453.28;5059734;28;45520;-60
2021/10/07 10:16:15;;;;;;;;;8.00;7.00;;;;;19.15;50.27;102449.78;5058985;28;46393;-55
2021/10/07 10:18:40;;;;;;;;;7.67;6.67;;;;;19.14;50.19;102453.28;5059157;28;45264;-56
2021/10/07 10:21:07;;;;;;;;;8.67;7.00;;;;;19.14;50.33;102447.94;5058973;28;45565;-61
2021/10/07 10:23:37;;;;;;;;;9.00;6.33;;;;;19.15;50.40;102454.22;5059548;28;45377;-47
2021/10/07 10:26:10;;;;;;;;;8.67;8.67;;;;;19.14;50.26;102452.41;5058872;28;47059;-59
2021/10/07 10:28:35;;;;;;;;;6.00;5.33;;;;;19.14;50.43;102453.28;5059113;28;45307;-55
2021/10/07 10:31:04;;;;;;;;;8.33;6.67;;;;;19.14;50.30;102449.75;5059010;28;45271;-58
2021/10/07 10:33:35;;;;;;;;;5.67;5.67;;;;;19.13;50.39;102450.59;5058880;28;45343;-56
2021/10/07 10:36:01;;;;;;;;;8.00;6.67;;;;;19.14;50.48;102452.41;5059030;28;47048;-51
2021/10/07 10:38:29;;;;;;;;;10.33;8.00;;;;;19.14;50.29;102455.06;5058928;28;45216;-51
2021/10/07 10:41:09;;;;;;;;;8.67;7.00;;;;;19.13;50.49;102450.59;5057696;28;45225;-49
2021/10/07 10:43:36;;;;;;;;;6.33;6.33;;;;;19.13;50.44;102450.59;5058771;28;45484;-63
2021/10/07 10:46:01;;;;;;;;;9.33;6.33;;;;;19.12;50.38;102444.38;5058591;28;47030;-59
2021/10/07 10:48:41;;;;;;;;;6.67;6.67;;;;;19.13;50.69;102453.28;5058580;28;45220;-49
2021/10/07 10:51:15;;;;;;;;;6.00;6.00;;;;;19.12;50.43;102448.84;5058788;28;45330;-46
2021/10/07 10:54:03;;;;;;;;;6.33;5.33;;;;;19.12;50.75;102447.03;5058747;28;45245;-56
2021/10/07 10:56:33;;;;;;;;;8.67;4.67;;;;;19.11;50.47;102445.28;5058234;28;45417;-62
2021/10/07 10:59:21;;;;;;;;;8.00;6.00;;;;;19.11;50.55;102439.94;5058496;28;45339;-46
2021/10/07 11:02:18;;;;;;;;;6.33;6.00;;;;;19.12;50.59;102440.84;5058587;28;45327;-53
2021/10/07 11:04:46;;;;;;;;;11.67;8.67;;;;;19.10;50.45;102441.72;5055516;28;45595;-63
2021/10/07 11:07:16;;;;;;;;;7.67;4.67;;;;;19.10;50.64;102439.03;5058185;28;46250;-60
2021/10/07 11:10:17;;;;;;;;;7.00;6.67;;;;;19.11;50.78;102447.94;5058343;28;45290;-46
2021/10/07 11:12:51;;;;;;;;;8.00;5.00;;;;;19.10;50.68;102441.72;5058447;28;45235;-58
2021/10/07 11:15:18;;;;;;;;;6.00;5.00;;;;;19.10;50.71;102441.72;5058603;28;45235;-57
2021/10/07 11:17:46;;;;;;;;;8.67;6.33;;;;;19.10;50.59;102447.03;5058054;28;46005;-63
2021/10/07 11:20:14;;;;;;;;;4.67;4.67;;;;;19.10;50.49;102446.13;5058016;28;45496;-58
2021/10/07 11:22:40;;;;;;;;;9.67;6.67;;;;;19.10;50.64;102443.47;5058188;28;45351;-54
2021/10/07 11:25:06;;;;;;;;;6.67;4.67;;;;;19.10;50.47;102443.47;5058654;28;45308;-50
2021/10/07 11:27:41;;;;;;;;;6.00;6.00;;;;;19.09;50.56;102439.03;5058075;28;46931;-56